createdAt,value
2023-02-27T00:00:20.768Z,102848.72
2023-02-27T00:02:49.048Z,102853.91
2023-02-27T00:05:15.941Z,102851.34
2023-02-27T00:07:42.231Z,102850.56
2023-02-27T00:10:09.561Z,102849.78
2023-02-27T00:12:37.820Z,102847.31
2023-02-27T00:15:08.368Z,102856.75
2023-02-27T00:17:34.983Z,102857.72
2023-02-27T00:20:01.261Z,102853.50
2023-02-27T00:22:27.730Z,102860.50
2023-02-27T00:24:54.158Z,102857.13
2023-02-27T00:27:20.464Z,102864.03
2023-02-27T00:29:46.730Z,102856.28
2023-02-27T00:32:13.100Z,102855.44
2023-02-27T00:34:39.371Z,102857.22
2023-02-27T00:37:05.658Z,102857.25
2023-02-27T00:39:32.101Z,102852.94
2023-02-27T00:41:58.405Z,102859.94
2023-02-27T00:44:24.692Z,102849.66
2023-02-27T00:46:51.212Z,102852.16
2023-02-27T00:49:17.722Z,102853.94
2023-02-27T00:51:44.106Z,102854.94
2023-02-27T00:54:10.428Z,102855.88
2023-02-27T00:56:37.201Z,102853.41
2023-02-27T00:59:04.062Z,102844.91
2023-02-27T01:01:30.351Z,102849.22
2023-02-27T01:03:56.623Z,102848.41
2023-02-27T01:06:22.883Z,102851.88
2023-02-27T01:08:49.353Z,102847.53
2023-02-27T01:11:15.600Z,102844.97
2023-02-27T01:13:41.884Z,102848.41
2023-02-27T01:16:10.536Z,102857.03
2023-02-27T01:18:36.852Z,102845.84
2023-02-27T01:21:03.219Z,102848.47
2023-02-27T01:23:29.834Z,102853.66
2023-02-27T01:25:56.104Z,102856.28
2023-02-27T01:28:22.544Z,102855.47
2023-02-27T01:30:48.875Z,102850.38
2023-02-27T01:33:15.242Z,102853.84
2023-02-27T01:35:41.497Z,102850.38
2023-02-27T01:38:07.981Z,102856.44
2023-02-27T01:40:38.392Z,102850.47
2023-02-27T01:43:05.715Z,102841.88
2023-02-27T01:45:39.410Z,102848.81
2023-02-27T01:48:05.702Z,102849.66
2023-02-27T01:50:33.280Z,102854.13
2023-02-27T01:53:01.311Z,102850.81
2023-02-27T01:55:28.610Z,102840.59
2023-02-27T01:57:55.427Z,102845.81
2023-02-27T02:00:22.189Z,102848.50
2023-02-27T02:03:11.489Z,102848.53
2023-02-27T02:05:38.242Z,102843.38
2023-02-27T02:08:05.428Z,102843.44
2023-02-27T02:10:32.234Z,102835.72
2023-02-27T02:12:59.082Z,102841.78
2023-02-27T02:15:29.205Z,102847.84
2023-02-27T02:18:19.311Z,102840.94
2023-02-27T02:21:01.798Z,102835.72
2023-02-27T02:23:31.311Z,102851.13
2023-02-27T02:26:09.177Z,102846.06
2023-02-27T02:28:53.752Z,102848.66
2023-02-27T02:31:20.144Z,102840.13
2023-02-27T02:33:49.155Z,102844.66
2023-02-27T02:36:31.731Z,102839.44
2023-02-27T02:39:06.914Z,102840.44
2023-02-27T02:41:33.249Z,102848.25
2023-02-27T02:44:02.671Z,102830.28
2023-02-27T02:46:32.157Z,102837.22
2023-02-27T02:48:58.481Z,102836.44
2023-02-27T02:51:34.861Z,102838.13
2023-02-27T02:54:01.178Z,102833.94
2023-02-27T02:56:44.077Z,102837.34
2023-02-27T02:59:16.570Z,102843.31
2023-02-27T03:01:46.097Z,102846.75
2023-02-27T03:04:28.839Z,102848.50
2023-02-27T03:07:02.680Z,102856.34
2023-02-27T03:09:34.121Z,102858.97
2023-02-27T03:12:02.617Z,102859.91
2023-02-27T03:14:38.098Z,102857.34
2023-02-27T03:17:06.788Z,102849.59
2023-02-27T03:19:55.238Z,102851.44
2023-02-27T03:22:32.644Z,102851.47
2023-02-27T03:25:00.978Z,102861.84
2023-02-27T03:27:30.228Z,102858.44
2023-02-27T03:30:29.154Z,102860.09
2023-02-27T03:33:01.107Z,102867.00
2023-02-27T03:35:35.235Z,102862.72
2023-02-27T03:38:06.323Z,102862.78
2023-02-27T03:40:52.851Z,102856.81
2023-02-27T03:43:26.523Z,102861.19
2023-02-27T03:45:52.818Z,102866.41
2023-02-27T03:48:19.201Z,102856.19
2023-02-27T03:50:45.491Z,102859.66
2023-02-27T03:53:17.665Z,102856.28
2023-02-27T03:55:45.885Z,102858.94
2023-02-27T03:58:12.197Z,102859.84
2023-02-27T04:00:38.646Z,102861.59
2023-02-27T04:03:05.608Z,102873.69
2023-02-27T04:05:32.893Z,102871.13
2023-02-27T04:08:11.316Z,102878.88
2023-02-27T04:10:51.070Z,102884.03
2023-02-27T04:13:27.757Z,102883.19
2023-02-27T04:15:54.009Z,102884.03
2023-02-27T04:18:32.518Z,102890.03
2023-02-27T04:21:05.030Z,102886.63
2023-02-27T04:23:39.086Z,102888.38
2023-02-27T04:26:14.432Z,102897.91
2023-02-27T04:28:40.739Z,102894.53
2023-02-27T04:31:13.760Z,102897.09
2023-02-27T04:33:45.713Z,102895.34
2023-02-27T04:36:16.460Z,102891.91
2023-02-27T04:38:50.189Z,102891.03
2023-02-27T04:41:18.616Z,102890.16
2023-02-27T04:43:45.762Z,102900.47
2023-02-27T04:46:13.872Z,102906.56
2023-02-27T04:48:53.362Z,102898.00
2023-02-27T04:51:22.915Z,102911.03
2023-02-27T04:54:00.677Z,102906.78
2023-02-27T04:56:35.277Z,102908.56
2023-02-27T04:59:17.075Z,102915.53
2023-02-27T05:01:47.883Z,102913.06
2023-02-27T05:04:15.878Z,102923.41
2023-02-27T05:06:43.782Z,102919.16
2023-02-27T05:09:20.972Z,102921.81
2023-02-27T05:12:09.881Z,102921.00
2023-02-27T05:14:39.029Z,102924.41
2023-02-27T05:17:10.897Z,102926.06
2023-02-27T05:19:39.576Z,102932.94
2023-02-27T05:22:13.492Z,102932.16
2023-02-27T05:24:49.804Z,102929.59
2023-02-27T05:27:35.741Z,102927.97
2023-02-27T05:30:09.494Z,102934.06
2023-02-27T05:32:48.803Z,102936.63
2023-02-27T05:35:15.410Z,102943.44
2023-02-27T05:37:45.084Z,102942.66
2023-02-27T05:40:13.686Z,102945.25
2023-02-27T05:42:42.509Z,102943.50
2023-02-27T05:45:19.962Z,102940.94
2023-02-27T05:47:49.959Z,102940.13
2023-02-27T05:50:18.739Z,102933.22
2023-02-27T05:52:45.737Z,102942.69
2023-02-27T05:55:12.095Z,102946.91
2023-02-27T05:57:38.418Z,102946.94
2023-02-27T06:00:15.009Z,102941.00
2023-02-27T06:02:42.592Z,102946.19
2023-02-27T06:05:09.157Z,102935.88
2023-02-27T06:07:35.785Z,102938.50
2023-02-27T06:10:02.376Z,102942.78
2023-02-27T06:12:28.655Z,102940.22
2023-02-27T06:14:54.989Z,102947.94
2023-02-27T06:17:21.611Z,102953.03
2023-02-27T06:19:47.966Z,102951.25
2023-02-27T06:22:14.310Z,102950.41
2023-02-27T06:24:40.592Z,102963.25
2023-02-27T06:27:06.986Z,102965.81
2023-02-27T06:29:33.301Z,102965.81
2023-02-27T06:31:59.771Z,102962.38
2023-02-27T06:34:26.184Z,102964.97
2023-02-27T06:36:52.562Z,102976.13
2023-02-27T06:39:18.884Z,102975.31
2023-02-27T06:41:45.117Z,102976.97
2023-02-27T06:44:11.411Z,102984.66
2023-02-27T06:46:37.812Z,102979.53
2023-02-27T06:49:04.179Z,102986.28
2023-02-27T06:51:30.621Z,102988.88
2023-02-27T06:53:57.094Z,102980.25
2023-02-27T06:56:23.524Z,102995.72
2023-02-27T06:58:49.933Z,102993.94
2023-02-27T07:01:19.022Z,102993.03
2023-02-27T07:03:45.607Z,102992.94
2023-02-27T07:06:12.964Z,102990.34
2023-02-27T07:09:01.922Z,102999.66
2023-02-27T07:11:25.708Z,103001.34
2023-02-27T07:13:51.926Z,102999.59
2023-02-27T07:16:18.228Z,102999.50
2023-02-27T07:18:44.555Z,103002.03
2023-02-27T07:21:10.851Z,103008.84
2023-02-27T07:23:38.167Z,103010.47
2023-02-27T07:26:05.468Z,103012.97
2023-02-27T07:28:31.829Z,103006.03
2023-02-27T07:30:58.491Z,103007.72
2023-02-27T07:33:25.062Z,103012.84
2023-02-27T07:35:51.410Z,103017.16
2023-02-27T07:38:22.451Z,103005.94
2023-02-27T07:40:48.784Z,103017.91
2023-02-27T07:43:15.120Z,103010.97
2023-02-27T07:45:41.500Z,103019.53
2023-02-27T07:48:07.789Z,103020.25
2023-02-27T07:50:34.099Z,103015.88
2023-02-27T07:53:00.361Z,103023.59
2023-02-27T07:55:26.645Z,103026.06
2023-02-27T07:57:52.949Z,103026.88
2023-02-27T08:00:19.526Z,103025.09
2023-02-27T08:02:46.587Z,103037.94
2023-02-27T08:05:12.888Z,103035.31
2023-02-27T08:07:39.212Z,103036.97
2023-02-27T08:10:06.103Z,103032.59
2023-02-27T08:12:32.604Z,103040.31
2023-02-27T08:14:58.845Z,103030.81
2023-02-27T08:17:25.192Z,103040.25
2023-02-27T08:19:51.538Z,103037.59
2023-02-27T08:22:17.845Z,103039.25
2023-02-27T08:24:44.371Z,103046.91
2023-02-27T08:27:10.654Z,103041.69
2023-02-27T08:29:37.071Z,103043.31
2023-02-27T08:32:04.776Z,103038.03
2023-02-27T08:34:31.122Z,103042.25
2023-02-27T08:36:57.440Z,103049.03
2023-02-27T08:39:26.727Z,103048.06
2023-02-27T08:41:53.031Z,103047.03
2023-02-27T08:44:19.753Z,103051.19
2023-02-27T08:46:46.229Z,103050.22
2023-02-27T08:49:12.790Z,103055.22
2023-02-27T08:51:39.192Z,103055.13
2023-02-27T08:54:05.613Z,103055.94
2023-02-27T08:56:34.004Z,103060.16
2023-02-27T08:59:00.415Z,103054.88
2023-02-27T09:01:34.542Z,103060.78
2023-02-27T09:04:04.530Z,103058.91
2023-02-27T09:06:31.573Z,103064.84
2023-02-27T09:08:58.569Z,103061.28
2023-02-27T09:11:26.146Z,103063.84
2023-02-27T09:13:52.935Z,103070.66
2023-02-27T09:16:20.153Z,103067.09
2023-02-27T09:18:49.278Z,103073.97
2023-02-27T09:21:16.062Z,103073.84
2023-02-27T09:23:44.057Z,103065.16
2023-02-27T09:26:10.824Z,103074.47
2023-02-27T09:28:37.625Z,103070.84
2023-02-27T09:31:08.275Z,103069.06
2023-02-27T09:33:35.168Z,103074.06
2023-02-27T09:36:05.531Z,103072.78
2023-02-27T09:38:33.141Z,103073.59
2023-02-27T09:40:59.729Z,103063.03
2023-02-27T09:43:32.469Z,103067.16
2023-02-27T09:46:00.691Z,103069.47
2023-02-27T09:48:29.722Z,103075.31
2023-02-27T09:50:59.915Z,103069.88
2023-02-27T09:53:31.250Z,103063.72
2023-02-27T09:56:02.017Z,103070.56
2023-02-27T09:58:37.339Z,103065.09
2023-02-27T10:01:03.805Z,103068.25
2023-02-27T10:03:43.358Z,103071.47
2023-02-27T10:06:15.852Z,103068.63
2023-02-27T10:09:01.363Z,103070.88
2023-02-27T10:11:51.250Z,103072.13
2023-02-27T10:14:19.007Z,103062.16
2023-02-27T10:16:47.751Z,103071.31
2023-02-27T10:19:16.767Z,103067.53
2023-02-27T10:21:45.433Z,103063.81
2023-02-27T10:24:30.614Z,103059.00
2023-02-27T10:27:02.523Z,103058.53
2023-02-27T10:29:29.266Z,103050.16
2023-02-27T10:32:13.993Z,103052.28
2023-02-27T10:34:41.965Z,103050.88
2023-02-27T10:37:13.505Z,103052.09
2023-02-27T10:39:52.960Z,103049.72
2023-02-27T10:42:19.750Z,103051.56
2023-02-27T10:44:53.428Z,103052.59
2023-02-27T10:47:23.830Z,103049.47
2023-02-27T10:49:50.647Z,103043.59
2023-02-27T10:52:17.936Z,103045.66
2023-02-27T10:54:44.902Z,103045.03
2023-02-27T10:57:27.474Z,103041.91
2023-02-27T10:59:55.838Z,103027.41
2023-02-27T11:02:26.461Z,103029.41
2023-02-27T11:04:54.442Z,103025.16
2023-02-27T11:07:29.000Z,103018.53
2023-02-27T11:09:59.839Z,103017.50
2023-02-27T11:12:28.488Z,103016.34
2023-02-27T11:15:02.098Z,103009.97
2023-02-27T11:17:34.993Z,102998.53
2023-02-27T11:20:06.137Z,103001.09
2023-02-27T11:22:32.551Z,102999.19
2023-02-27T11:25:25.892Z,102993.09
2023-02-27T11:27:52.413Z,102987.88
2023-02-27T11:30:23.872Z,102985.31
2023-02-27T11:32:51.439Z,102995.22
2023-02-27T11:35:20.696Z,102984.31
2023-02-27T11:37:49.691Z,102988.56
2023-02-27T11:40:19.380Z,102993.06
2023-02-27T11:42:48.228Z,102979.50
2023-02-27T11:46:10.147Z,102986.66
2023-02-27T11:48:12.539Z,102982.94
2023-02-27T11:50:57.652Z,102975.19
2023-02-27T11:53:48.685Z,102975.75
2023-02-27T11:56:18.079Z,102974.81
2023-02-27T11:58:48.738Z,102971.78
2023-02-27T12:01:37.559Z,102962.47
2023-02-27T12:04:12.643Z,102966.66
2023-02-27T12:07:05.361Z,102960.81
2023-02-27T12:09:31.699Z,102964.34
2023-02-27T12:12:02.447Z,102965.91
2023-02-27T12:14:34.127Z,102967.91
2023-02-27T12:17:09.794Z,102972.41
2023-02-27T12:19:40.191Z,102968.00
2023-02-27T12:22:15.319Z,102960.75
2023-02-27T12:24:51.143Z,102959.97
2023-02-27T12:27:20.065Z,102960.38
2023-02-27T12:30:15.286Z,102959.91
2023-02-27T12:32:55.138Z,102952.50
2023-02-27T12:35:27.985Z,102959.47
2023-02-27T12:37:54.399Z,102944.19
2023-02-27T12:40:33.304Z,102957.53
2023-02-27T12:43:18.500Z,102968.16
2023-02-27T12:46:04.985Z,102957.91
2023-02-27T12:48:31.323Z,102959.97
2023-02-27T12:51:16.290Z,102957.72
2023-02-27T12:53:42.599Z,102954.34
2023-02-27T12:56:20.393Z,102967.31
2023-02-27T12:59:03.517Z,102961.00
2023-02-27T13:01:42.681Z,102957.09
2023-02-27T13:04:23.753Z,102965.56
2023-02-27T13:06:53.278Z,102947.19
2023-02-27T13:09:37.672Z,102957.16
2023-02-27T13:12:11.314Z,102956.34
2023-02-27T13:14:47.722Z,102951.69
2023-02-27T13:17:13.973Z,102945.63
2023-02-27T13:19:49.051Z,102946.78
2023-02-27T13:22:18.845Z,102950.28
2023-02-27T13:24:51.565Z,102944.59
2023-02-27T13:27:17.801Z,102949.41
2023-02-27T13:29:47.645Z,102939.81
2023-02-27T13:32:32.755Z,102948.66
2023-02-27T13:35:17.321Z,102936.50
2023-02-27T13:37:50.913Z,102942.84
2023-02-27T13:40:27.790Z,102934.81
2023-02-27T13:42:56.129Z,102928.88
2023-02-27T13:45:41.103Z,102933.69
2023-02-27T13:48:25.868Z,102926.84
2023-02-27T13:50:52.529Z,102925.22
2023-02-27T13:53:20.591Z,102922.53
2023-02-27T13:55:47.137Z,102920.53
2023-02-27T13:58:16.401Z,102918.22
2023-02-27T14:00:42.735Z,102920.59
2023-02-27T14:03:20.411Z,102917.50
2023-02-27T14:05:47.833Z,102914.00
2023-02-27T14:08:15.942Z,102930.56
2023-02-27T14:10:53.508Z,102934.38
2023-02-27T14:13:38.504Z,102940.75
2023-02-27T14:16:05.615Z,102937.94
2023-02-27T14:18:52.328Z,102939.13
2023-02-27T14:21:37.482Z,102935.66
2023-02-27T14:24:03.984Z,102938.69
2023-02-27T14:26:30.347Z,102929.72
2023-02-27T14:28:58.116Z,102928.47
2023-02-27T14:31:35.090Z,102934.25
2023-02-27T14:34:06.214Z,102933.25
2023-02-27T14:36:34.587Z,102939.84
2023-02-27T14:39:02.000Z,102939.88
2023-02-27T14:41:35.064Z,102936.09
2023-02-27T14:44:02.045Z,102929.84
2023-02-27T14:46:30.238Z,102936.66
2023-02-27T14:49:07.477Z,102925.53
2023-02-27T14:51:35.800Z,102936.34
2023-02-27T14:54:06.573Z,102929.72
2023-02-27T14:56:33.724Z,102919.16
2023-02-27T14:59:04.745Z,102923.06
2023-02-27T15:01:35.134Z,102924.94
2023-02-27T15:04:01.578Z,102924.78
2023-02-27T15:06:34.758Z,102925.00
2023-02-27T15:09:01.270Z,102923.34
2023-02-27T15:11:28.195Z,102916.81
2023-02-27T15:13:59.257Z,102922.13
2023-02-27T15:16:29.087Z,102921.13
2023-02-27T15:18:55.378Z,102913.09
2023-02-27T15:21:22.649Z,102925.88
2023-02-27T15:23:59.416Z,102915.88
2023-02-27T15:26:26.729Z,102909.66
2023-02-27T15:28:53.428Z,102906.34
2023-02-27T15:31:24.193Z,102904.81
2023-02-27T15:33:51.240Z,102902.34
2023-02-27T15:36:37.868Z,102912.53
2023-02-27T15:39:04.265Z,102902.38
2023-02-27T15:41:30.789Z,102907.09
2023-02-27T15:43:57.277Z,102911.78
2023-02-27T15:46:23.903Z,102907.94
2023-02-27T15:48:51.980Z,102920.84
2023-02-27T15:51:18.320Z,102917.72
2023-02-27T15:53:48.858Z,102926.63
2023-02-27T15:56:15.628Z,102921.53
2023-02-27T15:58:48.709Z,102923.38
2023-02-27T16:01:19.776Z,102929.91
2023-02-27T16:03:47.903Z,102929.56
2023-02-27T16:06:23.390Z,102923.78
2023-02-27T16:08:54.103Z,102937.19
2023-02-27T16:11:21.697Z,102936.81
2023-02-27T16:13:48.205Z,102934.97
2023-02-27T16:16:20.464Z,102936.16
2023-02-27T16:18:48.320Z,102938.84
2023-02-27T16:21:16.083Z,102939.97
2023-02-27T16:23:42.953Z,102935.53
2023-02-27T16:26:20.897Z,102941.09
2023-02-27T16:28:50.974Z,102944.69
2023-02-27T16:31:28.855Z,102937.94
2023-02-27T16:33:57.462Z,102939.91
2023-02-27T16:36:25.101Z,102940.91
2023-02-27T16:38:51.750Z,102952.50
2023-02-27T16:41:19.238Z,102943.06
2023-02-27T16:43:46.701Z,102943.06
2023-02-27T16:46:19.442Z,102947.50
2023-02-27T16:48:50.127Z,102953.06
2023-02-27T16:51:17.805Z,102948.19
2023-02-27T16:53:46.104Z,102945.72
2023-02-27T16:56:12.796Z,102946.84
2023-02-27T16:58:39.041Z,102954.72
2023-02-27T17:01:05.585Z,102945.47
2023-02-27T17:03:33.209Z,102952.50
2023-02-27T17:05:59.453Z,102953.72
2023-02-27T17:08:25.984Z,102961.69
2023-02-27T17:10:53.360Z,102958.31
2023-02-27T17:13:19.754Z,102964.63
2023-02-27T17:15:46.284Z,102964.00
2023-02-27T17:18:12.541Z,102962.44
2023-02-27T17:20:38.823Z,102961.81
2023-02-27T17:23:05.136Z,102971.47
2023-02-27T17:25:31.396Z,102965.66
2023-02-27T17:27:57.834Z,102974.50
2023-02-27T17:30:24.140Z,102966.00
2023-02-27T17:32:50.436Z,102970.50
2023-02-27T17:35:16.824Z,102972.56
2023-02-27T17:37:43.309Z,102971.06
2023-02-27T17:40:12.043Z,102979.91
2023-02-27T17:42:39.217Z,102979.22
2023-02-27T17:45:06.544Z,102981.16
2023-02-27T17:47:33.861Z,102981.34
2023-02-27T17:50:00.592Z,102985.84
2023-02-27T17:52:27.480Z,102988.66
2023-02-27T17:54:53.760Z,102979.25
2023-02-27T17:57:20.049Z,102979.41
2023-02-27T17:59:46.632Z,102988.28
2023-02-27T18:02:13.668Z,102984.09
2023-02-27T18:04:40.080Z,102982.53
2023-02-27T18:07:07.151Z,102985.28
2023-02-27T18:09:33.417Z,102984.63
2023-02-27T18:11:59.778Z,102999.53
2023-02-27T18:14:26.258Z,102998.81
2023-02-27T18:16:52.577Z,103005.88
2023-02-27T18:19:18.914Z,103004.28
2023-02-27T18:21:47.239Z,103005.34
2023-02-27T18:24:15.697Z,103004.63
2023-02-27T18:26:42.729Z,103004.03
2023-02-27T18:29:10.145Z,103004.25
2023-02-27T18:31:44.410Z,103010.53
2023-02-27T18:34:11.368Z,103007.34
2023-02-27T18:36:38.095Z,103016.28
2023-02-27T18:39:08.115Z,103009.63
2023-02-27T18:41:35.145Z,103011.47
2023-02-27T18:44:01.483Z,103012.47
2023-02-27T18:46:28.446Z,103016.88
2023-02-27T18:48:55.281Z,103016.13
2023-02-27T18:51:22.036Z,103027.31
2023-02-27T18:53:49.254Z,103021.22
2023-02-27T18:56:16.938Z,103015.13
2023-02-27T18:58:43.324Z,103022.03
2023-02-27T19:01:17.778Z,103021.97
2023-02-27T19:03:44.093Z,103023.78
2023-02-27T19:06:10.473Z,103034.19
2023-02-27T19:08:36.853Z,103032.41
2023-02-27T19:11:03.761Z,103033.25
2023-02-27T19:13:30.477Z,103031.47
2023-02-27T19:15:57.211Z,103032.38
2023-02-27T19:18:23.555Z,103034.22
2023-02-27T19:20:49.831Z,103029.03
2023-02-27T19:23:16.136Z,103042.97
2023-02-27T19:25:42.581Z,103033.56
2023-02-27T19:28:12.655Z,103031.06
2023-02-27T19:30:39.747Z,103033.72
2023-02-27T19:33:06.239Z,103036.34
2023-02-27T19:35:32.539Z,103036.50
2023-02-27T19:37:59.183Z,103047.69
2023-02-27T19:40:26.281Z,103038.22
2023-02-27T19:42:52.710Z,103041.78
2023-02-27T19:45:19.030Z,103034.75
2023-02-27T19:47:46.555Z,103043.25
2023-02-27T19:50:13.157Z,103042.47
2023-02-27T19:52:39.517Z,103050.94
2023-02-27T19:55:06.470Z,103043.09
2023-02-27T19:57:33.741Z,103048.22
2023-02-27T20:00:00.290Z,103048.97
2023-02-27T20:02:26.583Z,103050.78
2023-02-27T20:04:53.599Z,103058.56
2023-02-27T20:07:19.971Z,103057.84
2023-02-27T20:09:46.440Z,103051.69
2023-02-27T20:12:12.719Z,103050.84
2023-02-27T20:14:40.064Z,103057.75
2023-02-27T20:17:07.956Z,103042.22
2023-02-27T20:19:36.298Z,103055.06
2023-02-27T20:22:02.825Z,103050.91
2023-02-27T20:24:29.224Z,103055.16
2023-02-27T20:26:57.836Z,103047.53
2023-02-27T20:29:26.287Z,103051.91
2023-02-27T20:31:53.870Z,103052.84
2023-02-27T20:34:21.947Z,103050.34
2023-02-27T20:36:49.458Z,103049.59
2023-02-27T20:39:16.252Z,103054.94
2023-02-27T20:41:42.688Z,103042.91
2023-02-27T20:44:09.347Z,103044.72
2023-02-27T20:46:36.120Z,103050.94
2023-02-27T20:49:03.695Z,103046.75
2023-02-27T20:51:31.909Z,103050.22
2023-02-27T20:53:59.030Z,103040.75
2023-02-27T20:56:29.137Z,103048.66
2023-02-27T20:58:55.730Z,103049.00
2023-02-27T21:01:22.068Z,103055.31
2023-02-27T21:03:50.901Z,103052.88
2023-02-27T21:06:17.851Z,103046.84
2023-02-27T21:08:45.459Z,103048.63
2023-02-27T21:11:11.773Z,103053.06
2023-02-27T21:13:38.158Z,103048.69
2023-02-27T21:16:05.946Z,103046.16
2023-02-27T21:18:32.348Z,103047.06
2023-02-27T21:21:02.431Z,103048.88
2023-02-27T21:23:28.724Z,103047.16
2023-02-27T21:25:55.067Z,103043.88
2023-02-27T21:28:21.513Z,103059.50
2023-02-27T21:30:47.881Z,103063.03
2023-02-27T21:33:14.165Z,103061.50
2023-02-27T21:35:45.336Z,103065.16
2023-02-27T21:38:11.602Z,103068.81
2023-02-27T21:40:37.930Z,103066.34
2023-02-27T21:43:04.298Z,103074.22
2023-02-27T21:45:30.601Z,103073.41
2023-02-27T21:47:56.867Z,103071.03
2023-02-27T21:50:23.208Z,103062.44
2023-02-27T21:52:49.547Z,103060.13
2023-02-27T21:55:16.203Z,103074.75
2023-02-27T21:57:42.510Z,103066.25
2023-02-27T22:00:11.447Z,103076.75
2023-02-27T22:02:38.665Z,103069.13
2023-02-27T22:05:05.525Z,103070.91
2023-02-27T22:07:31.788Z,103078.72
2023-02-27T22:09:58.112Z,103071.97
2023-02-27T22:12:24.470Z,103077.31
2023-02-27T22:14:50.817Z,103079.13
2023-02-27T22:17:17.132Z,103073.28
2023-02-27T22:19:43.685Z,103063.06
2023-02-27T22:22:09.950Z,103067.41
2023-02-27T22:24:36.247Z,103070.94
2023-02-27T22:27:02.563Z,103065.84
2023-02-27T22:29:28.792Z,103067.66
2023-02-27T22:31:55.078Z,103071.06
2023-02-27T22:34:21.524Z,103072.81
2023-02-27T22:36:48.639Z,103069.47
2023-02-27T22:39:14.970Z,103071.28
2023-02-27T22:41:42.234Z,103071.34
2023-02-27T22:44:09.483Z,103079.13
2023-02-27T22:46:37.518Z,103074.94
2023-02-27T22:49:05.898Z,103078.38
2023-02-27T22:51:32.567Z,103076.72
2023-02-27T22:54:00.259Z,103079.34
2023-02-27T22:56:26.760Z,103076.81
2023-02-27T22:58:53.388Z,103075.16
2023-02-27T23:01:27.109Z,103081.28
2023-02-27T23:03:54.125Z,103087.38
2023-02-27T23:06:22.491Z,103093.44
2023-02-27T23:08:49.101Z,103090.03
2023-02-27T23:11:16.133Z,103090.88
2023-02-27T23:13:42.444Z,103094.34
2023-02-27T23:16:13.455Z,103099.59
2023-02-27T23:18:45.914Z,103092.75
2023-02-27T23:21:13.837Z,103094.44
2023-02-27T23:23:40.359Z,103096.19
2023-02-27T23:26:06.792Z,103091.81
2023-02-27T23:28:34.543Z,103084.09
2023-02-27T23:31:00.955Z,103087.56
2023-02-27T23:33:27.964Z,103089.34
2023-02-27T23:35:54.360Z,103091.13
2023-02-27T23:38:20.970Z,103088.69
2023-02-27T23:40:47.353Z,103093.03
2023-02-27T23:43:32.978Z,103096.53
2023-02-27T23:46:00.224Z,103093.13
2023-02-27T23:48:26.624Z,103098.38
2023-02-27T23:50:52.936Z,103106.16
2023-02-27T23:53:19.457Z,103107.09
2023-02-27T23:55:45.997Z,103110.53
2023-02-27T23:58:12.437Z,103106.19
